Time;durP1;ratioP1;P1;durP2;ratioP2;P2;SDS_P1;SDS_P2;PMS_P1;PMS_P2;Temp;Humidity;BMP_temperature;BMP_pressure;BME280_temperature;BME280_humidity;BME280_pressure;Samples;Min_cycle;Max_cycle;Signal;HPM_P1;HPM_P2
2023/08/17 00:00:14;;;;;;;3.05;1.90;;;;;;;21.37;59.12;101852.03;5008764;28;20042;-66
2023/08/17 00:02:41;;;;;;;3.92;2.10;;;;;;;21.38;59.16;101856.56;4997149;28;20452;-65
2023/08/17 00:05:06;;;;;;;7.00;2.00;;;;;;;21.40;59.01;101861.91;5008859;28;20030;-65
2023/08/17 00:07:32;;;;;;;3.55;2.10;;;;;;;21.41;59.20;101855.09;5010532;28;20033;-65
2023/08/17 00:09:58;;;;;;;5.57;2.28;;;;;;;21.33;59.45;101851.81;5010119;28;20034;-65
2023/08/17 00:12:23;;;;;;;4.13;2.13;;;;;;;21.34;59.23;101849.84;5010425;28;20092;-65
2023/08/17 00:14:48;;;;;;;3.70;2.10;;;;;;;21.35;59.04;101842.22;5008772;28;20029;-65
2023/08/17 00:17:14;;;;;;;6.32;2.13;;;;;;;21.35;59.24;101853.50;5010199;28;20066;-65
2023/08/17 00:19:39;;;;;;;4.20;1.90;;;;;;;21.36;59.04;101841.91;5006998;28;20494;-65
2023/08/17 00:22:04;;;;;;;4.72;2.10;;;;;;;21.39;59.16;101846.09;5011169;28;20053;-65
2023/08/17 00:24:30;;;;;;;3.63;2.10;;;;;;;21.39;59.12;101846.09;5008674;28;20029;-65
2023/08/17 00:26:55;;;;;;;3.35;1.95;;;;;;;21.33;59.19;101846.16;5010251;28;20026;-65
2023/08/17 00:29:20;;;;;;;3.47;1.92;;;;;;;21.27;59.28;101843.69;4975616;28;1041479;-65
2023/08/17 00:31:46;;;;;;;5.25;2.05;;;;;;;21.23;59.40;101843.44;5006301;28;20478;-65
2023/08/17 00:34:11;;;;;;;3.75;2.30;;;;;;;21.20;59.55;101832.75;5004182;28;20033;-65
2023/08/17 00:36:36;;;;;;;4.88;2.00;;;;;;;21.22;59.31;101838.06;5006592;28;20026;-65
2023/08/17 00:39:02;;;;;;;6.43;2.10;;;;;;;21.24;59.35;101838.63;5010148;28;20081;-65
2023/08/17 00:41:28;;;;;;;7.05;1.92;;;;;;;21.18;59.42;101837.88;5008478;28;20026;-65
2023/08/17 00:43:54;;;;;;;5.38;2.17;;;;;;;21.20;59.25;101838.38;5010515;28;20037;-65
2023/08/17 00:46:22;;;;;;;5.78;2.42;;;;;;;21.17;59.27;101844.63;5008914;28;20378;-65
2023/08/17 00:48:47;;;;;;;4.15;1.80;;;;;;;21.18;59.31;101843.50;5011079;28;20042;-65
2023/08/17 00:51:13;;;;;;;4.07;2.10;;;;;;;21.16;59.18;101842.97;5009351;28;20084;-65
2023/08/17 00:53:39;;;;;;;4.53;2.08;;;;;;;21.19;58.95;101850.00;4996492;28;20379;-65
2023/08/17 00:56:05;;;;;;;4.95;2.10;;;;;;;21.15;59.16;101846.09;5000122;28;20041;-66
2023/08/17 00:58:31;;;;;;;5.43;2.13;;;;;;;21.08;59.25;101852.09;5010661;28;20042;-65
2023/08/17 01:00:56;;;;;;;3.80;2.13;;;;;;;21.05;59.52;101847.88;5011027;28;20034;-66
2023/08/17 01:03:23;;;;;;;5.55;2.00;;;;;;;21.07;59.48;101853.25;5010388;28;20537;-65
2023/08/17 01:05:48;;;;;;;3.58;2.03;;;;;;;21.09;59.30;101859.41;5005550;28;24151;-65
2023/08/17 01:08:13;;;;;;;5.45;1.77;;;;;;;21.06;59.16;101855.22;5002817;28;20053;-65
2023/08/17 01:10:42;;;;;;;2.00;1.50;;;;;;;21.00;59.46;101864.88;5010630;28;20026;-65
2023/08/17 01:13:17;;;;;;;4.88;2.22;;;;;;;21.06;59.26;101854.34;5011060;28;20026;-66
2023/08/17 01:15:49;;;;;;;5.78;2.15;;;;;;;21.08;59.15;101852.09;5008864;28;20033;-65
2023/08/17 01:18:25;;;;;;;4.80;2.10;;;;;;;21.01;59.24;101851.59;5013695;28;20077;-66
2023/08/17 01:20:53;;;;;;;3.78;2.30;;;;;;;21.01;59.22;101848.78;5014402;28;20382;-66
2023/08/17 01:23:18;;;;;;;2.53;1.63;;;;;;;21.07;59.04;101844.78;5011642;28;20026;-65
2023/08/17 01:25:44;;;;;;;5.22;2.25;;;;;;;21.06;59.21;101845.88;5010690;28;20037;-66
2023/08/17 01:28:09;;;;;;;4.93;2.25;;;;;;;21.04;59.16;101846.19;5013942;28;20049;-66
2023/08/17 01:30:55;;;;;;;5.22;2.03;;;;;;;20.97;59.45;101854.19;5012580;28;20029;-65
2023/08/17 01:33:28;;;;;;;3.33;2.10;;;;;;;20.92;59.66;101839.28;5014967;28;20036;-66
2023/08/17 01:36:10;;;;;;;5.18;2.08;;;;;;;20.91;59.69;101849.75;5009911;28;20026;-65
2023/08/17 01:38:38;;;;;;;3.17;1.90;;;;;;;20.80;60.10;101837.72;5014574;28;20410;-65
2023/08/17 01:41:05;;;;;;;5.70;2.17;;;;;;;20.89;59.97;101837.06;5014567;28;20409;-65
2023/08/17 01:43:31;;;;;;;5.55;2.33;;;;;;;20.78;60.03;101844.78;5010351;28;20463;-66
2023/08/17 01:45:56;;;;;;;4.22;1.98;;;;;;;20.87;60.05;101833.69;5014399;28;20121;-65
2023/08/17 01:48:21;;;;;;;4.70;2.05;;;;;;;20.84;60.12;101835.97;5010401;28;20037;-66
2023/08/17 01:50:47;;;;;;;5.93;2.20;;;;;;;20.81;60.23;101828.09;5012554;28;20062;-65
2023/08/17 01:53:12;;;;;;;4.40;2.38;;;;;;;20.80;60.31;101832.06;5012713;28;20080;-65
2023/08/17 01:55:38;;;;;;;6.78;2.25;;;;;;;20.72;60.55;101824.25;5013535;28;20105;-65
2023/08/17 01:58:03;;;;;;;5.57;2.38;;;;;;;20.73;60.54;101828.75;5012412;28;20084;-66
2023/08/17 02:00:28;;;;;;;8.02;2.38;;;;;;;20.72;60.64;101827.09;5009978;28;20026;-65
2023/08/17 02:02:54;;;;;;;3.88;2.10;;;;;;;20.71;60.63;101831.06;5011228;28;20026;-65
2023/08/17 02:05:19;;;;;;;6.25;2.38;;;;;;;20.72;60.73;101820.59;5012228;28;20521;-65
2023/08/17 02:07:44;;;;;;;4.70;2.38;;;;;;;20.66;60.63;101833.91;5012565;28;20030;-65
2023/08/17 02:10:10;;;;;;;8.18;2.70;;;;;;;20.62;60.97;101832.81;5012204;28;20611;-65
2023/08/17 02:12:35;;;;;;;3.97;2.40;;;;;;;20.63;60.96;101837.31;5013832;28;20033;-65
2023/08/17 02:15:00;;;;;;;6.40;2.67;;;;;;;20.64;61.38;101829.72;5010582;28;20065;-66
2023/08/17 02:17:26;;;;;;;5.13;2.45;;;;;;;20.56;61.00;101828.38;5010249;28;20036;-65
2023/08/17 02:19:51;;;;;;;5.35;2.55;;;;;;;20.57;61.14;101842.19;5009527;28;20476;-65
2023/08/17 02:22:16;;;;;;;7.00;3.20;;;;;;;20.61;61.05;101841.59;5009028;28;20551;-66
2023/08/17 02:24:42;;;;;;;5.00;2.50;;;;;;;20.59;60.96;101839.91;5012072;28;20481;-65
2023/08/17 02:27:09;;;;;;;4.22;2.50;;;;;;;20.56;60.97;101845.31;5009848;28;20041;-65
2023/08/17 02:29:34;;;;;;;6.90;2.63;;;;;;;20.57;60.78;101841.34;5013495;28;20054;-65
2023/08/17 02:32:00;;;;;;;4.18;2.45;;;;;;;20.58;60.74;101835.38;5011779;28;20040;-65
2023/08/17 02:34:25;;;;;;;4.25;2.20;;;;;;;20.53;60.73;101837.44;5012835;28;20070;-64
2023/08/17 02:36:50;;;;;;;4.57;2.30;;;;;;;20.56;60.82;101834.03;5004562;28;20038;-65
2023/08/17 02:39:15;;;;;;;4.13;2.42;;;;;;;20.46;60.93;101834.06;4992954;28;20469;-65
2023/08/17 02:41:41;;;;;;;4.82;2.40;;;;;;;20.48;60.97;101829.84;5009381;28;21054;-65
2023/08/17 02:44:06;;;;;;;5.43;2.53;;;;;;;20.45;60.86;101832.41;5007703;28;20037;-65
2023/08/17 02:46:32;;;;;;;6.13;2.42;;;;;;;20.52;60.59;101838.56;5010325;28;20061;-65
2023/08/17 02:48:57;;;;;;;4.28;2.60;;;;;;;20.40;61.03;101827.66;5011049;28;20101;-65
2023/08/17 02:51:22;;;;;;;6.50;2.30;;;;;;;20.45;60.86;101826.75;5010839;28;20116;-65
2023/08/17 02:53:48;;;;;;;3.83;2.28;;;;;;;20.43;60.95;101823.38;5005918;28;20030;-65
2023/08/17 02:56:13;;;;;;;4.55;2.30;;;;;;;20.37;61.17;101828.25;4993362;28;20473;-65
2023/08/17 02:58:42;;;;;;;4.05;2.45;;;;;;;20.39;60.95;101825.09;5002743;28;20034;-65
2023/08/17 03:01:08;;;;;;;6.30;2.15;;;;;;;20.32;61.17;101823.50;5010650;28;20101;-66
2023/08/17 03:03:34;;;;;;;2.35;2.08;;;;;;;20.35;60.96;101822.88;5000148;28;20085;-65
2023/08/17 03:06:00;;;;;;;5.93;2.15;;;;;;;20.33;60.81;101815.88;4992684;28;20458;-66
2023/08/17 03:08:26;;;;;;;5.55;2.22;;;;;;;20.40;60.51;101822.00;5005829;28;20084;-65
2023/08/17 03:10:51;;;;;;;5.90;2.17;;;;;;;20.40;60.20;101818.34;5007876;28;20476;-65
2023/08/17 03:13:16;;;;;;;5.15;2.28;;;;;;;20.42;59.80;101821.69;5012177;28;20043;-65
2023/08/17 03:15:42;;;;;;;4.20;2.15;;;;;;;20.43;59.88;101818.56;5011996;28;20034;-66
2023/08/17 03:18:07;;;;;;;4.38;2.22;;;;;;;20.41;59.67;101820.88;5009953;28;20049;-65
2023/08/17 03:20:32;;;;;;;4.82;2.15;;;;;;;20.41;59.61;101820.03;5006388;28;20599;-65
2023/08/17 03:22:58;;;;;;;5.85;2.10;;;;;;;20.39;59.78;101819.47;5012722;28;20493;-65
2023/08/17 03:25:23;;;;;;;4.57;2.00;;;;;;;20.37;59.57;101813.31;5011714;28;20061;-66
2023/08/17 03:27:48;;;;;;;4.43;2.10;;;;;;;20.27;60.05;101817.03;5011969;28;20096;-65
2023/08/17 03:30:14;;;;;;;4.63;1.98;;;;;;;20.32;60.02;101811.38;5009781;28;20104;-65
2023/08/17 03:32:40;;;;;;;3.65;2.25;;;;;;;20.29;60.22;101815.63;5012693;28;20053;-64
2023/08/17 03:35:06;;;;;;;6.40;2.33;;;;;;;20.22;60.54;101812.28;5005486;28;20105;-65
2023/08/17 03:37:31;;;;;;;5.13;2.45;;;;;;;20.26;60.50;101816.19;4992797;28;20126;-65
2023/08/17 03:39:57;;;;;;;6.50;2.63;;;;;;;20.26;60.45;101812.53;5001364;28;20030;-65
2023/08/17 03:42:22;;;;;;;4.70;2.28;;;;;;;20.23;60.56;101807.50;5011227;28;20026;-65
2023/08/17 03:44:47;;;;;;;6.47;2.50;;;;;;;20.21;60.65;101809.78;5008678;28;20389;-65
2023/08/17 03:47:14;;;;;;;4.65;2.33;;;;;;;20.15;60.77;101806.13;5011963;28;20041;-65
2023/08/17 03:49:39;;;;;;;6.18;2.38;;;;;;;20.18;60.92;101810.34;5008786;28;20030;-66
2023/08/17 03:52:05;;;;;;;4.93;2.30;;;;;;;20.19;60.90;101823.31;5003110;28;20385;-65
2023/08/17 03:54:30;;;;;;;4.65;2.33;;;;;;;20.16;61.12;101813.47;4992292;28;20054;-65
2023/08/17 03:56:56;;;;;;;4.05;2.35;;;;;;;20.18;61.05;101810.34;4998989;28;20524;-65
2023/08/17 03:59:21;;;;;;;5.25;2.03;;;;;;;20.18;60.93;101819.66;5012134;28;20029;-65
2023/08/17 04:01:46;;;;;;;5.47;2.40;;;;;;;20.10;61.07;101820.28;5008964;28;20022;-65
2023/08/17 04:04:11;;;;;;;5.47;2.40;;;;;;;20.14;61.06;101827.00;5010277;28;20026;-65
2023/08/17 04:06:39;;;;;;;6.13;2.75;;;;;;;20.09;61.26;101829.88;5011430;28;20025;-64
2023/08/17 04:09:04;;;;;;;4.50;2.22;;;;;;;20.04;61.37;101832.72;5007796;28;20108;-65
2023/08/17 04:11:29;;;;;;;5.10;2.38;;;;;;;20.09;61.28;101835.53;5009558;28;20113;-65
2023/08/17 04:13:55;;;;;;;5.88;2.70;;;;;;;20.03;61.46;101843.16;5010666;28;20465;-65
2023/08/17 04:16:20;;;;;;;6.10;2.63;;;;;;;20.04;61.48;101842.03;5009085;28;20108;-66
2023/08/17 04:18:45;;;;;;;5.13;2.25;;;;;;;20.07;61.21;101832.97;5012003;28;20022;-65
2023/08/17 04:21:11;;;;;;;5.68;2.40;;;;;;;20.07;61.33;101841.44;5007326;28;20037;-65
2023/08/17 04:23:36;;;;;;;2.97;2.00;;;;;;;20.08;61.35;101840.31;4999542;28;20061;-64
2023/08/17 04:26:01;;;;;;;5.00;2.50;;;;;;;20.03;61.60;101843.16;5010475;28;20030;-65
2023/08/17 04:28:26;;;;;;;4.90;2.33;;;;;;;19.96;61.72;101837.00;5010602;28;20053;-64
2023/08/17 04:30:52;;;;;;;5.35;2.38;;;;;;;20.00;61.40;101848.53;5010896;28;20100;-65
2023/08/17 04:33:17;;;;;;;4.50;2.03;;;;;;;19.92;61.65;101847.19;5008730;28;20496;-65
2023/08/17 04:35:46;;;;;;;6.18;2.40;;;;;;;19.97;61.56;101849.13;5011488;28;20030;-65
2023/08/17 04:38:11;;;;;;;3.90;2.20;;;;;;;19.95;61.70;101851.41;5007967;28;20493;-65
2023/08/17 04:40:37;;;;;;;6.05;2.50;;;;;;;19.82;61.68;101848.09;5002006;28;20026;-65
2023/08/17 04:43:02;;;;;;;3.05;2.00;;;;;;;19.91;61.71;101855.94;5007623;28;20037;-65
2023/08/17 04:45:28;;;;;;;4.57;2.20;;;;;;;19.85;61.83;101847.53;5010342;28;20037;-65
2023/08/17 04:47:53;;;;;;;4.80;2.20;;;;;;;19.89;61.43;101844.97;5011691;28;20032;-65
2023/08/17 04:50:18;;;;;;;5.57;2.40;;;;;;;19.90;61.48;101846.63;5010500;28;20076;-65
2023/08/17 04:52:44;;;;;;;4.43;2.33;;;;;;;19.84;61.61;101843.00;5011354;28;20440;-65
2023/08/17 04:55:10;;;;;;;4.18;2.17;;;;;;;19.88;61.61;101845.22;5008054;28;20045;-65
2023/08/17 04:57:35;;;;;;;4.75;2.28;;;;;;;19.87;61.48;101844.41;5006752;28;20112;-65
2023/08/17 05:00:00;;;;;;;5.63;2.40;;;;;;;19.81;61.64;101842.75;5002496;28;20034;-65
2023/08/17 05:02:26;;;;;;;8.13;2.90;;;;;;;19.76;61.80;101839.97;5009232;28;20030;-65
2023/08/17 05:04:51;;;;;;;7.20;2.90;;;;;;;19.69;61.87;101845.94;5010975;28;20030;-66
2023/08/17 05:07:17;;;;;;;5.82;2.33;;;;;;;19.76;61.70;101837.97;5013914;28;20061;-65
2023/08/17 05:09:42;;;;;;;6.30;2.58;;;;;;;19.67;61.76;101841.72;5013179;28;20117;-66
2023/08/17 05:12:08;;;;;;;4.03;2.00;;;;;;;19.74;61.82;101845.06;5012976;28;20496;-66
2023/08/17 05:14:33;;;;;;;4.63;2.28;;;;;;;19.70;61.86;101839.16;5007253;28;20489;-65
2023/08/17 05:16:58;;;;;;;4.32;2.13;;;;;;;19.75;61.69;101847.56;5008929;28;20061;-65
2023/08/17 05:19:24;;;;;;;4.95;2.13;;;;;;;19.74;61.75;101842.25;5014132;28;20091;-65
2023/08/17 05:21:51;;;;;;;4.15;2.05;;;;;;;19.76;61.62;101842.78;5010533;28;20050;-65
2023/08/17 05:24:16;;;;;;;8.30;2.15;;;;;;;19.67;61.95;101842.56;5011539;28;20025;-66
2023/08/17 05:26:42;;;;;;;5.32;2.42;;;;;;;19.69;62.13;101842.25;5012781;28;20390;-66
2023/08/17 05:29:07;;;;;;;4.10;2.10;;;;;;;19.62;62.28;101842.59;5014777;28;20049;-66
2023/08/17 05:31:32;;;;;;;6.53;2.28;;;;;;;19.71;61.75;101835.19;5013472;28;20106;-65
2023/08/17 05:33:58;;;;;;;4.50;2.20;;;;;;;19.67;62.01;101838.91;5014093;28;20360;-65
2023/08/17 05:36:23;;;;;;;4.97;2.45;;;;;;;19.67;62.02;101838.91;5012255;28;20041;-65
2023/08/17 05:38:48;;;;;;;6.78;2.63;;;;;;;19.63;61.82;101835.81;5010522;28;20484;-66
2023/08/17 05:41:15;;;;;;;5.38;2.67;;;;;;;19.66;61.87;101832.44;5013618;28;20030;-65
2023/08/17 05:43:40;;;;;;;5.22;2.30;;;;;;;19.69;61.99;101839.44;5008719;28;20490;-66
2023/08/17 05:46:05;;;;;;;3.88;2.50;;;;;;;19.70;62.14;101844.78;5011660;28;20069;-65
2023/08/17 05:48:32;;;;;;;5.05;2.50;;;;;;;19.68;62.13;101847.03;5013615;28;20022;-65
2023/08/17 05:50:57;;;;;;;6.28;2.85;;;;;;;19.71;62.22;101852.09;5012477;28;20087;-66
2023/08/17 05:53:23;;;;;;;5.97;2.70;;;;;;;19.67;62.41;101853.81;5013788;28;20480;-66
2023/08/17 05:55:48;;;;;;;6.60;2.70;;;;;;;19.69;62.40;101854.38;5011813;28;20449;-66
2023/08/17 05:58:14;;;;;;;7.20;2.90;;;;;;;19.76;62.12;101852.06;5012352;28;20038;-66
2023/08/17 06:00:39;;;;;;;7.30;2.90;;;;;;;19.82;62.17;101852.91;5003411;28;20037;-66
2023/08/17 06:03:04;;;;;;;4.78;2.70;;;;;;;19.84;62.21;101861.88;5013489;28;20030;-65
2023/08/17 06:05:30;;;;;;;4.70;2.42;;;;;;;19.82;62.42;101862.19;5012177;28;20482;-66
2023/08/17 06:07:59;;;;;;;5.43;2.63;;;;;;;19.81;62.27;101852.06;5009799;28;20040;-66
2023/08/17 06:10:25;;;;;;;6.65;2.97;;;;;;;19.89;62.29;101855.41;5002700;28;20038;-66
2023/08/17 06:12:54;;;;;;;6.32;2.90;;;;;;;19.93;62.10;101862.13;5005759;28;20049;-66
2023/08/17 06:15:20;;;;;;;6.95;3.38;;;;;;;19.86;62.24;101866.09;5002561;28;20017;-66
2023/08/17 06:17:45;;;;;;;6.63;2.92;;;;;;;19.90;62.30;101874.81;5002211;28;20096;-65
2023/08/17 06:20:11;;;;;;;7.18;2.63;;;;;;;19.86;62.44;101866.09;5008803;28;20036;-65
2023/08/17 06:22:37;;;;;;;6.25;3.17;;;;;;;19.84;62.30;101868.34;5009995;28;20045;-65
2023/08/17 06:25:04;;;;;;;6.85;3.90;;;;;;;19.87;62.18;101861.31;5008872;28;20469;-65
2023/08/17 06:27:30;;;;;;;6.32;2.70;;;;;;;19.83;62.39;101866.69;4996587;28;20033;-66
2023/08/17 06:29:55;;;;;;;5.63;3.50;;;;;;;19.86;62.49;101868.09;5000475;28;20563;-65
2023/08/17 06:32:20;;;;;;;7.00;3.35;;;;;;;19.86;62.55;101863.28;5012638;28;20025;-66
2023/08/17 06:34:46;;;;;;;5.60;2.65;;;;;;;19.82;62.52;101862.19;5012043;28;20462;-65
2023/08/17 06:37:11;;;;;;;5.82;3.20;;;;;;;19.81;62.94;101862.50;5010258;28;20038;-65
2023/08/17 06:39:36;;;;;;;7.10;3.25;;;;;;;19.91;62.74;101864.38;5006556;28;20496;-65
2023/08/17 06:42:02;;;;;;;6.22;2.90;;;;;;;19.88;63.28;101862.97;5004463;28;20088;-65
2023/08/17 06:44:28;;;;;;;6.32;3.30;;;;;;;19.94;62.89;101872.25;5010705;28;20034;-64
2023/08/17 06:46:54;;;;;;;6.75;3.42;;;;;;;19.98;62.70;101881.81;5011821;28;20042;-66
2023/08/17 06:49:19;;;;;;;10.25;3.35;;;;;;;19.89;62.90;101875.13;5009279;28;20099;-65
2023/08/17 06:51:44;;;;;;;8.45;3.42;;;;;;;19.91;62.88;101876.50;5001117;28;20061;-65
2023/08/17 06:54:10;;;;;;;6.25;3.35;;;;;;;19.91;62.75;101879.31;5008377;28;20110;-66
2023/08/17 06:56:35;;;;;;;8.70;3.78;;;;;;;19.99;62.91;101866.59;5012137;28;20432;-66
2023/08/17 06:59:01;;;;;;;5.47;2.80;;;;;;;20.05;62.91;101868.25;5007621;28;20034;-65
2023/08/17 07:01:26;;;;;;;6.13;3.25;;;;;;;20.04;62.53;101866.53;4999531;28;20030;-66
2023/08/17 07:03:51;;;;;;;7.55;3.22;;;;;;;20.03;62.78;101871.34;5008852;28;20037;-64
2023/08/17 07:06:17;;;;;;;7.43;3.15;;;;;;;20.06;63.01;101869.91;5005645;28;20117;-65
2023/08/17 07:08:42;;;;;;;6.05;3.30;;;;;;;20.08;62.70;101867.63;5008644;28;20076;-65
2023/08/17 07:11:08;;;;;;;5.53;3.17;;;;;;;20.10;62.61;101862.56;5007760;28;20030;-65
2023/08/17 07:13:34;;;;;;;5.95;2.90;;;;;;;20.18;63.51;101870.38;5010000;28;20042;-65
2023/08/17 07:15:59;;;;;;;5.55;3.72;;;;;;;20.05;62.73;101865.44;5010462;28;20085;-66
2023/08/17 07:18:24;;;;;;;5.68;3.15;;;;;;;20.04;62.92;101873.03;5004003;28;20105;-66
2023/08/17 07:20:50;;;;;;;5.97;3.10;;;;;;;20.07;62.84;101871.59;4988917;28;20026;-65
2023/08/17 07:23:15;;;;;;;5.60;3.53;;;;;;;20.09;62.90;101872.16;4992214;28;20513;-65
2023/08/17 07:25:40;;;;;;;5.30;3.50;;;;;;;20.08;62.97;101867.63;5007730;28;20052;-65
2023/08/17 07:28:06;;;;;;;6.55;3.10;;;;;;;20.07;63.02;101869.63;5009851;28;20049;-65
2023/08/17 07:30:31;;;;;;;6.03;3.85;;;;;;;20.07;63.07;101871.59;5011923;28;20092;-65
2023/08/17 07:32:56;;;;;;;5.03;2.35;;;;;;;20.19;63.97;101868.41;5001058;28;20032;-65
2023/08/17 07:35:22;;;;;;;7.05;3.95;;;;;;;20.08;63.37;101870.44;5005812;28;20425;-65
2023/08/17 07:37:47;;;;;;;7.25;3.42;;;;;;;20.11;63.00;101873.53;5012067;28;20500;-65
2023/08/17 07:40:12;;;;;;;4.43;3.30;;;;;;;20.15;63.51;101873.78;5011948;28;20029;-65
2023/08/17 07:42:37;;;;;;;4.50;3.38;;;;;;;20.15;62.93;101872.94;5008914;28;20049;-65
2023/08/17 07:45:07;;;;;;;4.05;3.03;;;;;;;20.20;63.02;101878.53;5010073;28;20379;-65
2023/08/17 07:47:36;;;;;;;8.27;3.60;;;;;;;20.15;63.11;101879.44;5000690;28;20084;-65
2023/08/17 07:50:01;;;;;;;5.18;2.97;;;;;;;20.23;63.07;101878.81;5001646;28;20018;-65
2023/08/17 07:52:26;;;;;;;7.53;2.85;;;;;;;20.27;62.94;101874.25;5006169;28;20030;-64
2023/08/17 07:54:52;;;;;;;8.40;3.92;;;;;;;20.23;62.89;101875.16;5010586;28;20568;-65
2023/08/17 07:57:17;;;;;;;8.98;3.35;;;;;;;20.25;63.05;101876.53;5007601;28;20048;-66
2023/08/17 07:59:42;;;;;;;4.97;3.08;;;;;;;20.30;63.41;101876.50;5008191;28;20034;-65
2023/08/17 08:02:08;;;;;;;10.20;3.80;;;;;;;20.27;62.82;101882.72;5009111;28;20470;-65
2023/08/17 08:04:33;;;;;;;5.75;3.58;;;;;;;20.26;62.68;101883.88;5002495;28;20044;-65
2023/08/17 08:06:58;;;;;;;5.30;3.65;;;;;;;20.25;62.89;101875.72;5007163;28;20050;-66
2023/08/17 08:09:23;;;;;;;5.55;3.50;;;;;;;20.22;62.69;101871.50;5010025;28;20041;-64
2023/08/17 08:11:49;;;;;;;7.82;3.78;;;;;;;20.25;63.19;101878.53;5008684;28;20033;-69
2023/08/17 08:14:14;;;;;;;9.85;3.42;;;;;;;20.25;63.04;101882.19;5008287;28;20033;-67
2023/08/17 08:16:40;;;;;;;4.03;3.17;;;;;;;20.29;62.75;101873.97;5005852;28;20077;-67
2023/08/17 08:19:05;;;;;;;5.75;3.13;;;;;;;20.36;62.66;101874.50;5011467;28;20070;-66
2023/08/17 08:21:30;;;;;;;5.13;3.58;;;;;;;20.37;62.52;101881.81;5009476;28;20041;-67
2023/08/17 08:23:56;;;;;;;5.53;3.40;;;;;;;20.39;62.60;101879.53;5003702;28;20496;-67
2023/08/17 08:26:21;;;;;;;7.15;3.97;;;;;;;20.38;62.33;101871.38;5013186;28;20495;-67
2023/08/17 08:28:46;;;;;;;5.90;3.30;;;;;;;20.37;62.47;101875.34;5015440;28;20485;-66
2023/08/17 08:31:12;;;;;;;7.13;3.75;;;;;;;20.32;62.64;101874.25;5014715;28;20073;-66
2023/08/17 08:33:37;;;;;;;7.25;2.70;;;;;;;20.41;62.75;101882.06;5014861;28;20022;-67
2023/08/17 08:36:03;;;;;;;8.43;3.97;;;;;;;20.34;62.68;101883.22;4998337;28;20039;-67
2023/08/17 08:38:29;;;;;;;6.78;3.60;;;;;;;20.31;62.95;101880.16;5012560;28;20032;-67
2023/08/17 08:40:54;;;;;;;3.63;2.20;;;;;;;20.45;63.13;101888.81;5009205;28;20065;-67
2023/08/17 08:43:19;;;;;;;6.22;3.67;;;;;;;20.38;62.53;101888.28;5013795;28;20026;-67
2023/08/17 08:45:45;;;;;;;7.28;4.03;;;;;;;20.40;62.47;101877.56;5011368;28;20036;-67
2023/08/17 08:48:17;;;;;;;6.50;2.88;;;;;;;20.37;62.59;101880.97;5011601;28;20033;-67
2023/08/17 08:50:45;;;;;;;7.32;4.18;;;;;;;20.26;62.71;101868.94;5012400;28;20174;-68
2023/08/17 08:53:14;;;;;;;6.93;3.40;;;;;;;20.27;62.82;101870.59;5010515;28;20084;-69
2023/08/17 08:55:47;;;;;;;7.78;2.85;;;;;;;20.31;63.36;101866.06;5005455;28;20471;-70
2023/08/17 08:58:15;;;;;;;7.47;3.92;;;;;;;20.21;63.49;101867.00;5010000;28;20061;-69
2023/08/17 09:00:41;;;;;;;9.88;3.70;;;;;;;20.25;63.32;101867.25;5011691;28;20026;-70
2023/08/17 09:03:08;;;;;;;5.80;3.50;;;;;;;20.29;63.32;101865.53;5008025;28;20480;-69
2023/08/17 09:05:34;;;;;;;8.23;3.75;;;;;;;20.24;63.63;101862.72;5010320;28;20080;-69
2023/08/17 09:08:00;;;;;;;7.45;4.00;;;;;;;20.24;63.71;101865.53;5010841;28;20018;-66
2023/08/17 09:10:26;;;;;;;10.38;4.60;;;;;;;20.17;63.28;101860.25;5011866;28;20025;-67
2023/08/17 09:12:51;;;;;;;8.73;4.50;;;;;;;20.17;63.20;101863.06;5012632;28;20025;-67
2023/08/17 09:15:17;;;;;;;11.18;4.30;;;;;;;20.19;63.46;101857.97;5013110;28;20034;-68
2023/08/17 09:17:42;;;;;;;6.80;3.80;;;;;;;20.24;63.90;101862.72;5007160;28;20064;-67
2023/08/17 09:20:09;;;;;;;11.18;5.35;;;;;;;20.19;63.28;101859.94;4992235;28;20018;-66
2023/08/17 09:22:39;;;;;;;10.70;4.80;;;;;;;20.10;63.54;101865.38;5009606;28;20503;-65
2023/08/17 09:25:05;;;;;;;7.72;4.10;;;;;;;20.07;63.53;101860.31;5010299;28;20188;-66
2023/08/17 09:27:32;;;;;;;9.25;4.75;;;;;;;20.09;63.61;101866.53;5010323;28;20026;-66
2023/08/17 09:30:09;;;;;;;9.30;4.45;;;;;;;20.08;64.01;101867.63;5011580;28;20588;-66
2023/08/17 09:32:35;;;;;;;12.77;5.10;;;;;;;20.03;64.24;101862.03;5009273;28;20061;-66
2023/08/17 09:35:05;;;;;;;8.13;5.07;;;;;;;20.00;63.97;101862.63;5011885;28;20053;-67
2023/08/17 09:37:31;;;;;;;11.75;5.68;;;;;;;19.95;64.43;101860.69;5011397;28;20029;-66
2023/08/17 09:39:56;;;;;;;10.73;5.45;;;;;;;20.01;64.33;101858.69;5011704;28;20085;-67
2023/08/17 09:42:22;;;;;;;8.70;4.70;;;;;;;20.08;64.15;101856.38;5002953;28;20481;-66
2023/08/17 09:44:49;;;;;;;11.23;5.18;;;;;;;20.09;64.17;101853.28;5006375;28;20052;-66
2023/08/17 09:47:17;;;;;;;14.35;5.55;;;;;;;20.16;64.30;101855.75;5010411;28;20442;-67
2023/08/17 09:49:47;;;;;;;12.93;5.47;;;;;;;20.22;63.80;101854.56;5011513;28;20637;-65
2023/08/17 09:52:13;;;;;;;12.40;5.93;;;;;;;20.19;63.95;101863.63;5011524;28;20037;-67
2023/08/17 09:54:39;;;;;;;12.57;6.45;;;;;;;20.19;63.88;101859.94;5011674;28;20497;-66
2023/08/17 09:57:06;;;;;;;11.02;5.97;;;;;;;20.17;63.79;101856.59;5004082;28;20160;-66
2023/08/17 09:59:31;;;;;;;12.27;6.57;;;;;;;20.14;63.85;101855.19;5009628;28;20165;-66
2023/08/17 10:01:59;;;;;;;16.63;9.10;;;;;;;20.19;64.01;101849.50;5006889;28;20108;-66
2023/08/17 10:04:28;;;;;;;16.88;8.38;;;;;;;20.11;64.59;101856.63;5010316;28;20037;-65
2023/08/17 10:07:05;;;;;;;17.60;8.18;;;;;;;20.06;64.39;101848.22;5004047;28;20639;-67
2023/08/17 10:09:43;;;;;;;16.95;8.05;;;;;;;20.09;64.49;101849.63;5004371;28;20017;-66
2023/08/17 10:12:16;;;;;;;15.05;7.75;;;;;;;20.07;64.82;101843.41;5003036;28;20515;-67
2023/08/17 10:14:49;;;;;;;16.52;6.80;;;;;;;20.04;64.59;101842.03;5002625;28;20115;-65
2023/08/17 10:17:21;;;;;;;15.63;7.30;;;;;;;20.06;64.88;101833.28;5001704;28;20034;-65
2023/08/17 10:19:52;;;;;;;13.23;7.18;;;;;;;20.05;64.59;101838.09;5005476;28;20057;-67
2023/08/17 10:22:17;;;;;;;11.82;7.68;;;;;;;20.07;64.87;101832.13;5001939;28;20080;-66
2023/08/17 10:24:44;;;;;;;10.57;6.57;;;;;;;20.04;65.10;101832.72;5011094;28;20800;-66
2023/08/17 10:27:11;;;;;;;13.15;7.25;;;;;;;20.13;65.96;101830.13;5007502;28;20156;-66
2023/08/17 10:29:38;;;;;;;14.85;7.53;;;;;;;20.11;64.89;101828.44;5010511;28;20038;-66
2023/08/17 10:32:05;;;;;;;15.95;7.13;;;;;;;20.10;65.14;101828.75;5010163;28;20485;-66
2023/08/17 10:34:30;;;;;;;15.25;6.85;;;;;;;20.14;65.34;101827.00;5009640;28;20036;-66
2023/08/17 10:36:57;;;;;;;11.68;6.10;;;;;;;20.15;64.85;101831.50;5008500;28;20029;-67
2023/08/17 10:39:26;;;;;;;11.50;6.93;;;;;;;20.14;65.38;101829.84;5010083;28;20034;-66
2023/08/17 10:41:52;;;;;;;11.73;7.55;;;;;;;20.11;64.95;101828.44;5008724;28;20056;-66
2023/08/17 10:44:37;;;;;;;12.00;7.30;;;;;;;20.11;65.03;101834.06;5008541;28;20037;-68
2023/08/17 10:47:38;;;;;;;9.82;5.90;;;;;;;20.19;64.83;101835.41;5005075;28;20477;-67
2023/08/17 10:50:20;;;;;;;13.85;7.10;;;;;;;20.11;64.98;101834.06;4945062;28;20035;-66
2023/08/17 10:52:48;;;;;;;9.38;5.60;;;;;;;20.22;65.02;101831.19;4997320;28;20508;-66
2023/08/17 10:55:13;;;;;;;11.57;6.38;;;;;;;20.15;65.03;101828.69;5004312;28;20428;-66
2023/08/17 10:57:40;;;;;;;13.63;8.02;;;;;;;20.14;65.44;101826.19;5008614;28;20030;-66
2023/08/17 11:00:31;;;;;;;10.48;7.00;;;;;;;20.20;65.38;101833.44;5006808;28;20022;-66
2023/08/17 11:03:03;;;;;;;15.48;8.00;;;;;;;20.17;65.34;101831.22;5011685;28;20030;-65
2023/08/17 11:05:37;;;;;;;14.30;8.05;;;;;;;20.20;65.50;101828.66;5010693;28;20030;-66
2023/08/17 11:08:03;;;;;;;17.52;8.70;;;;;;;20.17;65.75;101826.44;4999360;28;20025;-65
2023/08/17 11:10:29;;;;;;;14.73;8.60;;;;;;;20.18;66.22;101833.75;5009673;28;20481;-66
2023/08/17 11:13:04;;;;;;;14.95;8.55;;;;;;;20.21;65.90;101833.16;5010165;28;20030;-65
2023/08/17 11:15:42;;;;;;;12.95;9.18;;;;;;;20.19;66.16;101832.59;5005902;28;20386;-66
2023/08/17 11:18:08;;;;;;;16.95;9.48;;;;;;;20.20;66.15;101833.44;5006200;28;20048;-65
2023/08/17 11:20:35;;;;;;;14.85;8.40;;;;;;;20.26;65.96;101835.09;5009085;28;20025;-66